createdAt,value
2022-10-21T00:02:27.809Z,56.11
2022-10-21T00:05:15.244Z,56.17
2022-10-21T00:08:02.094Z,56.15
2022-10-21T00:10:53.889Z,56.07
2022-10-21T00:13:41.466Z,56.15
2022-10-21T00:16:28.954Z,56.05
2022-10-21T00:19:15.898Z,56.03
2022-10-21T00:22:03.222Z,56.00
2022-10-21T00:24:49.901Z,55.94
2022-10-21T00:27:39.268Z,55.99
2022-10-21T00:30:26.386Z,55.99
2022-10-21T00:33:14.104Z,56.04
2022-10-21T00:36:02.951Z,55.99
2022-10-21T00:38:50.056Z,56.04
2022-10-21T00:41:37.089Z,56.14
2022-10-21T00:44:27.878Z,56.11
2022-10-21T00:47:18.906Z,56.25
2022-10-21T00:50:06.601Z,56.17
2022-10-21T00:52:54.734Z,56.25
2022-10-21T00:55:46.761Z,56.27
2022-10-21T00:58:35.725Z,56.26
2022-10-21T01:01:24.601Z,56.27
2022-10-21T01:04:11.257Z,56.18
2022-10-21T01:06:58.778Z,56.23
2022-10-21T01:09:45.585Z,56.24
2022-10-21T01:12:39.424Z,56.24
2022-10-21T01:15:32.558Z,56.27
2022-10-21T01:18:31.879Z,56.28
2022-10-21T01:21:31.286Z,56.43
2022-10-21T01:24:48.893Z,56.40
2022-10-21T01:27:48.880Z,56.39
2022-10-21T01:30:43.690Z,56.38
2022-10-21T01:33:53.104Z,56.37
2022-10-21T01:36:45.124Z,56.41
2022-10-21T01:39:40.002Z,56.23
2022-10-21T01:42:33.785Z,56.18
2022-10-21T01:45:26.723Z,56.09
2022-10-21T01:48:19.813Z,56.11
2022-10-21T01:51:08.640Z,56.13
2022-10-21T01:54:01.355Z,55.99
2022-10-21T01:56:49.903Z,56.07
2022-10-21T01:59:39.991Z,56.10
2022-10-21T02:02:31.510Z,56.17
2022-10-21T02:05:22.889Z,56.14
2022-10-21T02:08:10.307Z,56.38
2022-10-21T02:11:04.275Z,56.46
2022-10-21T02:13:57.641Z,56.58
2022-10-21T02:16:46.480Z,56.59
2022-10-21T02:19:34.020Z,56.54
2022-10-21T02:22:23.594Z,56.54
2022-10-21T02:25:14.386Z,56.60
2022-10-21T02:28:01.788Z,56.61
2022-10-21T02:30:57.499Z,56.58
2022-10-21T02:33:52.795Z,56.64
2022-10-21T02:36:50.861Z,56.59
2022-10-21T02:39:43.287Z,56.62
2022-10-21T02:42:34.975Z,56.61
2022-10-21T02:45:23.579Z,56.60
2022-10-21T02:48:10.554Z,56.55
2022-10-21T02:50:57.902Z,56.59
2022-10-21T02:53:44.781Z,56.54
2022-10-21T02:56:32.921Z,56.57
2022-10-21T02:59:19.793Z,56.55
2022-10-21T03:02:06.615Z,56.50
2022-10-21T03:04:53.536Z,56.46
2022-10-21T03:07:40.593Z,56.47
2022-10-21T03:10:27.549Z,56.42
2022-10-21T03:13:15.787Z,56.36
2022-10-21T03:16:02.601Z,56.34
2022-10-21T03:18:50.022Z,56.32
2022-10-21T03:21:36.737Z,56.37
2022-10-21T03:24:28.919Z,56.41
2022-10-21T03:27:16.109Z,56.36
2022-10-21T03:30:05.831Z,56.52
2022-10-21T03:32:52.922Z,56.87
2022-10-21T03:35:40.161Z,56.75
2022-10-21T03:38:27.055Z,56.60
2022-10-21T03:41:14.369Z,56.42
2022-10-21T03:44:01.205Z,56.42
2022-10-21T03:46:50.450Z,56.34
2022-10-21T03:49:37.409Z,56.30
2022-10-21T03:52:24.584Z,56.29
2022-10-21T03:55:11.688Z,56.20
2022-10-21T03:57:59.180Z,56.19
2022-10-21T04:00:45.871Z,56.17
2022-10-21T04:03:34.558Z,56.15
2022-10-21T04:06:21.780Z,56.13
2022-10-21T04:09:09.159Z,56.06
2022-10-21T04:11:55.952Z,56.08
2022-10-21T04:14:43.394Z,56.03
2022-10-21T04:17:30.485Z,56.00
2022-10-21T04:20:19.368Z,56.00
2022-10-21T04:23:05.838Z,56.06
2022-10-21T04:25:52.866Z,56.14
2022-10-21T04:28:40.052Z,56.25
2022-10-21T04:31:31.279Z,56.27
2022-10-21T04:34:19.100Z,56.26
2022-10-21T04:37:07.658Z,56.34
2022-10-21T04:39:57.203Z,56.33
2022-10-21T04:42:48.531Z,56.40
2022-10-21T04:45:35.331Z,56.48
2022-10-21T04:48:23.166Z,56.37
2022-10-21T04:51:10.375Z,56.34
2022-10-21T04:53:59.021Z,56.43
2022-10-21T04:56:45.699Z,56.45
2022-10-21T04:59:32.499Z,56.42
2022-10-21T05:02:21.719Z,56.42
2022-10-21T05:05:11.754Z,56.42
2022-10-21T05:07:58.874Z,56.41
2022-10-21T05:10:47.531Z,56.36
2022-10-21T05:13:34.642Z,56.28
2022-10-21T05:16:22.036Z,56.20
2022-10-21T05:19:08.941Z,56.13
2022-10-21T05:21:56.267Z,56.13
2022-10-21T05:24:43.459Z,56.10
2022-10-21T05:27:32.038Z,55.94
2022-10-21T05:30:18.910Z,55.91
2022-10-21T05:33:07.249Z,55.97
2022-10-21T05:35:58.959Z,55.95
2022-10-21T05:38:46.077Z,55.94
2022-10-21T05:41:34.313Z,55.94
2022-10-21T05:44:23.493Z,55.89
2022-10-21T05:47:10.686Z,55.88
2022-10-21T05:49:57.954Z,55.86
2022-10-21T05:52:44.624Z,55.86
2022-10-21T05:55:32.450Z,55.89
2022-10-21T05:58:19.262Z,55.89
2022-10-21T06:01:08.044Z,55.81
2022-10-21T06:03:55.014Z,55.87
2022-10-21T06:06:41.825Z,55.84
2022-10-21T06:09:29.254Z,55.89
2022-10-21T06:12:16.036Z,55.89
2022-10-21T06:15:03.430Z,55.88
2022-10-21T06:17:52.610Z,55.93
2022-10-21T06:20:40.124Z,55.92
2022-10-21T06:23:27.029Z,55.94
2022-10-21T06:26:15.463Z,55.92
2022-10-21T06:29:02.377Z,55.86
2022-10-21T06:31:49.785Z,55.83
2022-10-21T06:34:37.945Z,55.83
2022-10-21T06:37:25.456Z,55.74
2022-10-21T06:40:13.191Z,55.69
2022-10-21T06:43:00.374Z,55.66
2022-10-21T06:45:47.035Z,55.62
2022-10-21T06:48:35.048Z,55.54
2022-10-21T06:51:24.385Z,55.55
2022-10-21T06:54:11.595Z,55.44
2022-10-21T06:56:58.490Z,55.45
2022-10-21T06:59:45.417Z,55.39
2022-10-21T07:02:32.220Z,55.36
2022-10-21T07:05:20.010Z,55.42
2022-10-21T07:08:10.606Z,55.49
2022-10-21T07:10:59.985Z,55.35
2022-10-21T07:13:47.074Z,55.31
2022-10-21T07:16:35.855Z,55.37
2022-10-21T07:19:22.785Z,55.34
2022-10-21T07:22:10.249Z,55.26
2022-10-21T07:24:58.166Z,55.19
2022-10-21T07:27:48.149Z,55.13
2022-10-21T07:30:40.791Z,55.01
2022-10-21T07:33:28.287Z,54.65
2022-10-21T07:36:18.873Z,54.88
2022-10-21T07:39:10.261Z,54.96
2022-10-21T07:41:59.163Z,54.69
2022-10-21T07:44:46.377Z,54.75
2022-10-21T07:47:32.899Z,54.88
2022-10-21T07:50:20.604Z,55.04
2022-10-21T07:53:12.489Z,55.11
2022-10-21T07:56:05.499Z,54.98
2022-10-21T07:58:54.059Z,54.27
2022-10-21T08:01:44.340Z,54.62
2022-10-21T08:04:33.370Z,54.81
2022-10-21T08:07:19.842Z,54.52
2022-10-21T08:10:07.589Z,54.53
2022-10-21T08:12:54.128Z,54.58
2022-10-21T08:15:44.171Z,54.61
2022-10-21T08:18:31.077Z,53.98
2022-10-21T08:21:18.807Z,54.54
2022-10-21T08:24:06.115Z,54.46
2022-10-21T08:26:53.019Z,54.33
2022-10-21T08:29:40.275Z,54.26
2022-10-21T08:32:29.301Z,54.19
2022-10-21T08:35:16.406Z,54.19
2022-10-21T08:38:03.729Z,54.12
2022-10-21T08:40:53.505Z,53.90
2022-10-21T08:43:44.662Z,53.68
2022-10-21T08:46:36.684Z,53.72
2022-10-21T08:49:30.896Z,53.72
2022-10-21T08:52:21.887Z,53.41
2022-10-21T08:55:16.066Z,53.66
2022-10-21T08:58:05.489Z,53.26
2022-10-21T09:00:57.453Z,53.72
2022-10-21T09:03:54.267Z,53.38
2022-10-21T09:06:52.954Z,53.17
2022-10-21T09:09:45.060Z,52.96
2022-10-21T09:12:39.692Z,52.98
2022-10-21T09:15:37.839Z,52.86
2022-10-21T09:18:38.309Z,53.11
2022-10-21T09:21:39.750Z,52.23
2022-10-21T09:24:35.282Z,51.88
2022-10-21T09:27:31.954Z,52.33
2022-10-21T09:30:30.109Z,53.23
2022-10-21T09:33:20.782Z,53.02
2022-10-21T09:36:12.379Z,52.99
2022-10-21T09:39:03.391Z,52.84
2022-10-21T09:41:59.318Z,52.81
2022-10-21T09:44:48.497Z,52.54
2022-10-21T09:47:35.271Z,53.21
2022-10-21T09:50:22.155Z,53.26
2022-10-21T09:53:16.296Z,53.14
2022-10-21T09:56:07.537Z,53.12
2022-10-21T09:59:07.584Z,53.01
2022-10-21T10:01:56.584Z,50.82
2022-10-21T10:04:43.509Z,53.03
2022-10-21T10:07:35.323Z,53.00
2022-10-21T10:10:31.924Z,52.46
2022-10-21T10:13:20.462Z,51.68
2022-10-21T10:16:26.210Z,52.98
2022-10-21T10:19:17.866Z,51.94
2022-10-21T10:22:10.814Z,52.25
2022-10-21T10:25:08.816Z,52.15
2022-10-21T10:27:59.366Z,51.68
2022-10-21T10:30:49.422Z,52.98
2022-10-21T10:33:38.034Z,52.74
2022-10-21T10:36:29.848Z,52.97
2022-10-21T10:39:22.841Z,52.69
2022-10-21T10:42:10.143Z,52.77
2022-10-21T10:45:00.444Z,52.76
2022-10-21T10:47:50.670Z,52.74
2022-10-21T10:50:47.970Z,52.75
2022-10-21T10:53:36.915Z,51.66
2022-10-21T10:56:30.404Z,52.81
2022-10-21T10:59:26.102Z,52.53
2022-10-21T11:02:24.502Z,52.39
2022-10-21T11:05:24.570Z,52.01
2022-10-21T11:08:16.465Z,51.96
2022-10-21T11:11:07.326Z,52.25
2022-10-21T11:13:54.987Z,52.71
2022-10-21T11:17:00.610Z,52.73
2022-10-21T11:19:56.492Z,52.03
2022-10-21T11:22:51.591Z,52.17
2022-10-21T11:25:44.533Z,52.04
2022-10-21T11:28:35.095Z,51.76
2022-10-21T11:31:37.364Z,52.18
2022-10-21T11:34:41.478Z,51.70
2022-10-21T11:37:44.356Z,51.84
2022-10-21T11:40:39.002Z,51.28
2022-10-21T11:43:40.308Z,52.10
2022-10-21T11:46:38.676Z,50.85
2022-10-21T11:49:42.774Z,51.87
2022-10-21T11:52:42.542Z,51.39
2022-10-21T11:55:38.803Z,51.14
2022-10-21T11:58:39.371Z,51.43
2022-10-21T12:01:42.031Z,51.69
2022-10-21T12:04:42.061Z,51.67
2022-10-21T12:07:45.927Z,51.51
2022-10-21T12:10:37.233Z,51.61
2022-10-21T12:13:29.104Z,52.19
2022-10-21T12:16:20.772Z,52.12
2022-10-21T12:19:12.459Z,52.30
2022-10-21T12:21:59.855Z,52.22
2022-10-21T12:24:54.093Z,52.52
2022-10-21T12:27:46.612Z,52.35
2022-10-21T12:30:38.993Z,52.47
2022-10-21T12:33:36.906Z,52.60
2022-10-21T12:36:40.618Z,52.25
2022-10-21T12:39:50.370Z,51.69
2022-10-21T12:42:37.378Z,51.79
2022-10-21T12:45:28.024Z,52.60
2022-10-21T12:48:33.138Z,52.57
2022-10-21T12:51:23.526Z,52.15
2022-10-21T12:54:17.799Z,52.71
2022-10-21T12:57:08.064Z,52.64
2022-10-21T13:00:16.710Z,53.00
2022-10-21T13:03:06.464Z,53.07
2022-10-21T13:06:04.646Z,53.42
2022-10-21T13:08:56.327Z,53.67
2022-10-21T13:11:43.138Z,54.01
2022-10-21T13:14:39.770Z,54.02
2022-10-21T13:17:50.518Z,54.20
2022-10-21T13:20:49.143Z,54.79
2022-10-21T13:23:44.304Z,54.99
2022-10-21T13:26:31.552Z,54.90
2022-10-21T13:29:41.534Z,54.81
2022-10-21T13:32:31.266Z,55.87
2022-10-21T13:35:32.845Z,55.27
2022-10-21T13:38:23.229Z,55.95
2022-10-21T13:41:23.651Z,55.65
2022-10-21T13:44:27.531Z,56.37
2022-10-21T13:47:30.238Z,56.35
2022-10-21T13:50:21.170Z,56.58
2022-10-21T13:53:23.417Z,56.04
2022-10-21T13:56:22.136Z,56.67
2022-10-21T13:59:22.573Z,56.85
2022-10-21T14:02:24.874Z,56.90
2022-10-21T14:05:28.394Z,56.87
2022-10-21T14:08:26.582Z,56.77
2022-10-21T14:11:18.678Z,56.92
2022-10-21T14:14:11.978Z,56.64
2022-10-21T14:17:01.287Z,56.83
2022-10-21T14:19:52.322Z,56.69
2022-10-21T14:22:40.174Z,56.63
2022-10-21T14:25:27.861Z,56.47
2022-10-21T14:28:15.057Z,56.54
2022-10-21T14:33:55.389Z,56.35
2022-10-21T14:37:09.245Z,56.41
2022-10-21T14:40:11.005Z,56.49
2022-10-21T14:42:59.642Z,56.51
2022-10-21T14:45:49.213Z,56.41
2022-10-21T14:48:39.679Z,56.43
2022-10-21T14:51:27.835Z,56.73
2022-10-21T14:54:27.110Z,56.59
2022-10-21T14:57:35.211Z,57.18
2022-10-21T15:00:29.044Z,57.40
2022-10-21T15:03:38.702Z,57.05
2022-10-21T15:06:28.734Z,58.12
2022-10-21T15:09:23.166Z,57.27
2022-10-21T15:12:19.803Z,57.81
2022-10-21T15:15:43.415Z,58.02
2022-10-21T15:18:32.807Z,58.84
2022-10-21T15:21:37.497Z,57.75
2022-10-21T15:24:29.301Z,58.14
2022-10-21T15:27:19.301Z,57.64
2022-10-21T15:30:15.069Z,57.70
2022-10-21T15:33:02.103Z,57.83
2022-10-21T15:36:00.984Z,57.81
2022-10-21T15:38:49.628Z,58.26
2022-10-21T15:41:36.263Z,58.12
2022-10-21T15:44:27.455Z,57.95
2022-10-21T15:47:14.544Z,58.06
2022-10-21T15:50:01.498Z,58.28
2022-10-21T15:52:48.528Z,58.33
2022-10-21T15:55:38.307Z,58.36
2022-10-21T15:58:25.270Z,58.65
2022-10-21T16:01:13.816Z,58.96
2022-10-21T16:04:02.734Z,59.08
2022-10-21T16:06:51.492Z,59.10
2022-10-21T16:09:38.734Z,59.24
2022-10-21T16:12:27.345Z,59.26
2022-10-21T16:15:15.392Z,59.36
2022-10-21T16:18:02.460Z,59.46
2022-10-21T16:20:49.201Z,59.75
2022-10-21T16:23:35.916Z,59.80
2022-10-21T16:26:25.866Z,59.71
2022-10-21T16:32:11.915Z,60.40
2022-10-21T16:34:58.762Z,59.99
2022-10-21T16:37:46.214Z,60.05
2022-10-21T16:40:35.881Z,60.21
2022-10-21T16:43:24.081Z,60.43
2022-10-21T16:46:24.163Z,60.37
2022-10-21T16:49:14.710Z,61.26
2022-10-21T16:52:02.303Z,60.73
2022-10-21T16:54:50.335Z,60.50
2022-10-21T16:57:37.574Z,60.41
2022-10-21T17:00:24.775Z,60.54
2022-10-21T17:03:13.214Z,60.43
2022-10-21T17:06:00.725Z,60.62
2022-10-21T17:08:47.878Z,60.55
2022-10-21T17:11:37.315Z,60.77
2022-10-21T17:14:24.340Z,60.97
2022-10-21T17:17:11.829Z,61.26
2022-10-21T17:20:00.103Z,61.17
2022-10-21T17:22:47.599Z,61.17
2022-10-21T17:25:34.596Z,61.19
2022-10-21T17:28:22.221Z,60.99
2022-10-21T17:31:13.117Z,61.15
2022-10-21T17:34:06.286Z,61.80
2022-10-21T17:36:55.221Z,61.65
2022-10-21T17:39:46.832Z,61.38
2022-10-21T17:42:33.851Z,61.71
2022-10-21T17:45:22.699Z,61.65
2022-10-21T17:48:10.014Z,61.55
2022-10-21T17:50:59.689Z,61.45
2022-10-21T17:53:49.459Z,61.63
2022-10-21T17:56:36.458Z,61.83
2022-10-21T17:59:23.488Z,61.36
2022-10-21T18:02:11.026Z,61.40
2022-10-21T18:04:58.242Z,61.29
2022-10-21T18:07:45.113Z,61.23
2022-10-21T18:10:33.865Z,61.33
2022-10-21T18:13:20.656Z,62.30
2022-10-21T18:16:10.235Z,61.56
2022-10-21T18:19:01.732Z,62.08
2022-10-21T18:21:50.688Z,61.55
2022-10-21T18:24:37.919Z,61.58
2022-10-21T18:27:26.372Z,61.74
2022-10-21T18:30:13.664Z,62.08
2022-10-21T18:33:00.881Z,61.47
2022-10-21T18:35:47.703Z,61.39
2022-10-21T18:38:35.013Z,61.27
2022-10-21T18:41:22.038Z,61.38
2022-10-21T18:44:13.738Z,61.05
2022-10-21T18:47:00.233Z,61.56
2022-10-21T18:49:47.549Z,61.33
2022-10-21T18:52:34.261Z,61.54
2022-10-21T18:55:21.871Z,61.46
2022-10-21T18:58:08.718Z,61.59
2022-10-21T19:00:57.372Z,62.13
2022-10-21T19:03:44.628Z,62.29
2022-10-21T19:06:35.944Z,61.97
2022-10-21T19:09:25.716Z,62.72
2022-10-21T19:12:16.372Z,63.33
2022-10-21T19:15:06.397Z,63.09
2022-10-21T19:17:55.024Z,62.63
2022-10-21T19:20:41.732Z,62.88
2022-10-21T19:23:31.792Z,62.65
2022-10-21T19:26:22.459Z,63.16
2022-10-21T19:29:13.313Z,63.29
2022-10-21T19:32:00.305Z,64.41
2022-10-21T19:34:48.743Z,64.03
2022-10-21T19:37:35.663Z,63.27
2022-10-21T19:40:23.681Z,62.64
2022-10-21T19:43:10.705Z,62.79
2022-10-21T19:46:02.505Z,62.33
2022-10-21T19:48:49.435Z,62.69
2022-10-21T19:51:38.095Z,62.22
2022-10-21T19:54:24.766Z,62.09
2022-10-21T19:57:11.556Z,61.73
2022-10-21T19:59:58.369Z,61.77
2022-10-21T20:02:45.123Z,61.72
2022-10-21T20:05:34.435Z,61.64
2022-10-21T20:08:22.615Z,61.66
2022-10-21T20:11:13.049Z,61.57
2022-10-21T20:14:00.711Z,61.65
2022-10-21T20:16:49.838Z,61.51
2022-10-21T20:19:36.318Z,61.66
2022-10-21T20:22:23.552Z,62.08
2022-10-21T20:25:12.396Z,61.91
2022-10-21T20:27:59.819Z,62.13
2022-10-21T20:30:46.519Z,62.15
2022-10-21T20:33:36.277Z,62.30
2022-10-21T20:36:24.747Z,62.22
2022-10-21T20:39:13.397Z,62.07
2022-10-21T20:42:01.619Z,62.04
2022-10-21T20:44:48.839Z,61.84
2022-10-21T20:47:35.727Z,61.81
2022-10-21T20:50:23.145Z,61.68
2022-10-21T20:53:09.759Z,62.06
2022-10-21T20:55:57.284Z,61.93
2022-10-21T20:58:45.829Z,61.88
2022-10-21T21:01:35.252Z,61.88
2022-10-21T21:04:23.634Z,62.14
2022-10-21T21:07:12.809Z,62.04
2022-10-21T21:10:02.906Z,62.06
2022-10-21T21:12:50.284Z,62.32
2022-10-21T21:15:38.322Z,62.13
2022-10-21T21:18:25.666Z,61.99
2022-10-21T21:21:14.479Z,62.15
2022-10-21T21:24:03.027Z,62.20
2022-10-21T21:26:49.955Z,62.19
2022-10-21T21:29:36.934Z,62.40
2022-10-21T21:32:25.275Z,62.07
2022-10-21T21:35:12.700Z,62.06
2022-10-21T21:37:59.591Z,62.20
2022-10-21T21:40:47.026Z,62.33
2022-10-21T21:43:34.558Z,62.24
2022-10-21T21:46:23.837Z,62.31
2022-10-21T21:49:11.818Z,62.55
2022-10-21T21:51:59.148Z,62.62
2022-10-21T21:54:46.054Z,62.53
2022-10-21T21:57:34.421Z,62.72
2022-10-21T22:00:21.148Z,63.07
2022-10-21T22:03:08.191Z,63.20
2022-10-21T22:05:56.232Z,62.96
2022-10-21T22:08:43.480Z,63.04
2022-10-21T22:11:33.227Z,62.97
2022-10-21T22:14:20.439Z,62.85
2022-10-21T22:17:07.447Z,62.83
2022-10-21T22:19:54.760Z,62.57
2022-10-21T22:22:42.894Z,62.65
2022-10-21T22:25:30.314Z,62.65
2022-10-21T22:28:17.243Z,62.80
2022-10-21T22:31:06.722Z,62.54
2022-10-21T22:33:53.695Z,62.74
2022-10-21T22:36:41.015Z,62.53
2022-10-21T22:39:29.250Z,62.64
2022-10-21T22:42:16.576Z,62.93
2022-10-21T22:45:03.476Z,62.97
2022-10-21T22:47:50.876Z,62.98
2022-10-21T22:50:37.679Z,63.40
2022-10-21T22:53:24.793Z,63.28
2022-10-21T22:56:13.243Z,62.99
2022-10-21T22:59:00.669Z,62.92
2022-10-21T23:01:47.557Z,62.69
2022-10-21T23:04:34.574Z,62.87
2022-10-21T23:07:21.677Z,62.43
2022-10-21T23:10:09.862Z,62.57
2022-10-21T23:12:58.152Z,62.65
2022-10-21T23:15:46.040Z,62.62
2022-10-21T23:18:33.090Z,62.59
2022-10-21T23:21:20.098Z,62.46
2022-10-21T23:24:07.835Z,62.41
2022-10-21T23:26:59.093Z,62.56
2022-10-21T23:29:49.637Z,62.34
2022-10-21T23:32:37.184Z,62.78
2022-10-21T23:35:24.761Z,62.81
2022-10-21T23:38:12.074Z,62.61
2022-10-21T23:40:58.910Z,62.54
2022-10-21T23:43:46.090Z,62.71
2022-10-21T23:46:34.663Z,62.50
2022-10-21T23:49:22.073Z,62.51
2022-10-21T23:52:09.163Z,62.61
2022-10-21T23:54:55.972Z,62.77
2022-10-21T23:57:43.008Z,62.86
